createdAt,value
2022-11-10T00:02:35.453Z,118.65
2022-11-10T00:05:21.176Z,108.45
2022-11-10T00:08:07.634Z,117.62
2022-11-10T00:11:01.311Z,118.62
2022-11-10T00:14:10.964Z,116.40
2022-11-10T00:17:04.392Z,116.53
2022-11-10T00:19:50.546Z,115.07
2022-11-10T00:22:36.958Z,116.30
2022-11-10T00:25:23.573Z,104.45
2022-11-10T00:28:09.248Z,121.35
2022-11-10T00:30:55.066Z,133.82
2022-11-10T00:33:42.099Z,114.10
2022-11-10T00:36:27.784Z,118.50
2022-11-10T00:39:13.516Z,130.27
2022-11-10T00:41:59.169Z,118.57
2022-11-10T00:44:44.907Z,110.30
2022-11-10T00:47:31.528Z,114.50
2022-11-10T00:50:17.526Z,110.40
2022-11-10T00:53:03.357Z,119.45
2022-11-10T00:55:49.143Z,120.28
2022-11-10T00:58:34.928Z,128.48
2022-11-10T01:01:21.630Z,118.62
2022-11-10T01:04:07.990Z,120.45
2022-11-10T01:06:53.838Z,119.70
2022-11-10T01:09:39.943Z,126.90
2022-11-10T01:12:29.652Z,121.03
2022-11-10T01:15:15.712Z,119.47
2022-11-10T01:18:01.335Z,120.37
2022-11-10T01:20:51.357Z,123.90
2022-11-10T01:23:37.438Z,103.60
2022-11-10T01:26:23.360Z,112.00
2022-11-10T01:29:09.157Z,109.00
2022-11-10T01:31:54.887Z,124.38
2022-11-10T01:34:40.921Z,125.87
2022-11-10T01:37:27.315Z,135.43
2022-11-10T01:42:59.281Z,147.65
2022-11-10T01:45:55.515Z,133.70
2022-11-10T01:51:44.758Z,124.53
2022-11-10T01:54:32.505Z,130.90
2022-11-10T01:57:18.128Z,131.87
2022-11-10T02:00:04.472Z,117.80
2022-11-10T02:02:54.478Z,142.32
2022-11-10T02:05:40.152Z,142.18
2022-11-10T02:08:26.055Z,120.35
2022-11-10T02:11:12.051Z,108.40
2022-11-10T02:13:57.999Z,122.07
2022-11-10T02:16:43.651Z,122.35
2022-11-10T02:19:29.665Z,130.37
2022-11-10T02:22:15.369Z,104.40
2022-11-10T02:25:01.308Z,100.10
2022-11-10T02:27:47.023Z,113.78
2022-11-10T02:30:33.147Z,101.95
2022-11-10T02:33:19.041Z,105.25
2022-11-10T02:38:50.671Z,95.22
2022-11-10T02:41:36.215Z,114.47
2022-11-10T02:44:21.952Z,97.18
2022-11-10T02:47:07.617Z,138.07
2022-11-10T02:49:53.558Z,115.75
2022-11-10T02:52:39.344Z,120.03
2022-11-10T02:55:25.025Z,95.75
2022-11-10T02:58:10.870Z,116.32
2022-11-10T03:00:56.639Z,115.05
2022-11-10T03:03:42.797Z,105.45
2022-11-10T03:06:28.565Z,109.03
2022-11-10T03:09:14.074Z,143.77
2022-11-10T03:11:59.854Z,135.00
2022-11-10T03:14:45.537Z,151.10
2022-11-10T03:17:31.328Z,142.75
2022-11-10T03:20:17.079Z,133.73
2022-11-10T03:23:04.109Z,129.60
2022-11-10T03:25:50.583Z,126.30
2022-11-10T03:28:36.530Z,137.77
2022-11-10T03:31:22.231Z,123.07
2022-11-10T03:34:08.082Z,123.90
2022-11-10T03:36:53.856Z,129.23
2022-11-10T03:39:39.861Z,103.30
2022-11-10T03:42:25.771Z,115.68
2022-11-10T03:45:12.092Z,110.07
2022-11-10T03:50:43.605Z,91.37
2022-11-10T03:53:29.298Z,86.57
2022-11-10T03:56:14.914Z,91.03
2022-11-10T03:59:00.616Z,94.15
2022-11-10T04:01:46.273Z,86.75
2022-11-10T04:04:50.831Z,92.47
2022-11-10T04:07:55.896Z,82.53
2022-11-10T04:10:41.982Z,101.15
2022-11-10T04:13:46.685Z,87.00
2022-11-10T04:16:32.719Z,88.93
2022-11-10T04:19:18.456Z,86.30
2022-11-10T04:22:04.147Z,83.90
2022-11-10T04:24:49.971Z,84.15
2022-11-10T04:27:35.636Z,81.70
2022-11-10T04:30:21.364Z,85.53
2022-11-10T04:33:07.016Z,77.57
2022-11-10T04:35:52.578Z,84.20
2022-11-10T04:38:38.700Z,92.78
2022-11-10T04:41:25.374Z,79.12
2022-11-10T04:46:56.936Z,75.82
2022-11-10T04:49:42.552Z,75.93
2022-11-10T04:52:28.317Z,70.28
2022-11-10T04:55:13.893Z,72.47
2022-11-10T04:57:59.471Z,70.72
2022-11-10T05:00:45.476Z,72.62
2022-11-10T05:03:31.488Z,67.37
2022-11-10T05:06:18.344Z,77.90
2022-11-10T05:09:04.128Z,71.60
2022-11-10T05:11:49.712Z,75.25
2022-11-10T05:14:35.687Z,71.00
2022-11-10T05:17:22.349Z,70.53
2022-11-10T05:25:58.213Z,65.35
2022-11-10T05:28:45.167Z,70.12
2022-11-10T05:31:31.326Z,70.72
2022-11-10T05:34:16.925Z,65.65
2022-11-10T05:37:02.697Z,72.75
2022-11-10T05:39:48.513Z,71.93
2022-11-10T05:42:34.223Z,69.18
2022-11-10T05:45:23.880Z,68.22
2022-11-10T05:48:09.863Z,65.68
2022-11-10T05:50:55.463Z,64.70
2022-11-10T05:53:41.589Z,64.35
2022-11-10T05:56:27.218Z,63.05
2022-11-10T05:59:12.863Z,69.90
2022-11-10T06:01:58.483Z,72.60
2022-11-10T06:04:44.460Z,73.40
2022-11-10T06:07:30.470Z,75.62
2022-11-10T06:10:16.447Z,66.97
2022-11-10T06:13:02.654Z,67.15
2022-11-10T06:15:50.565Z,64.37
2022-11-10T06:18:36.788Z,73.97
2022-11-10T06:21:22.431Z,75.20
2022-11-10T06:24:08.363Z,74.15
2022-11-10T06:26:53.996Z,77.72
2022-11-10T06:29:39.603Z,74.70
2022-11-10T06:32:25.333Z,66.05
2022-11-10T06:35:11.223Z,70.97
2022-11-10T06:38:04.563Z,69.25
2022-11-10T06:40:50.580Z,73.35
2022-11-10T06:43:36.508Z,64.95
2022-11-10T06:46:22.273Z,77.72
2022-11-10T06:49:08.212Z,67.28
2022-11-10T06:51:53.819Z,66.55
2022-11-10T06:54:39.570Z,75.18
2022-11-10T06:57:25.612Z,71.22
2022-11-10T07:00:11.954Z,62.90
2022-11-10T07:03:05.438Z,68.20
2022-11-10T07:05:51.376Z,66.35
2022-11-10T07:08:37.589Z,64.37
2022-11-10T07:11:23.487Z,65.30
2022-11-10T07:14:09.573Z,65.12
2022-11-10T07:19:41.281Z,73.10
2022-11-10T07:22:26.881Z,65.37
2022-11-10T07:25:12.522Z,67.55
2022-11-10T07:28:00.094Z,68.78
2022-11-10T07:30:46.217Z,73.00
2022-11-10T07:33:31.844Z,66.25
2022-11-10T07:36:17.646Z,73.30
2022-11-10T07:39:03.533Z,68.85
2022-11-10T07:41:52.488Z,68.12
2022-11-10T07:44:38.867Z,64.35
2022-11-10T07:47:24.833Z,68.12
2022-11-10T07:50:10.690Z,71.05
2022-11-10T07:53:16.360Z,66.68
2022-11-10T07:56:02.255Z,60.28
2022-11-10T07:58:48.351Z,62.72
2022-11-10T08:01:35.552Z,66.15
2022-11-10T08:04:22.719Z,63.97
2022-11-10T08:07:09.237Z,60.22
2022-11-10T08:09:55.381Z,63.58
2022-11-10T08:12:41.281Z,62.58
2022-11-10T08:15:27.492Z,67.57
2022-11-10T08:18:16.878Z,60.05
2022-11-10T08:21:03.336Z,57.08
2022-11-10T08:23:49.459Z,60.53
2022-11-10T08:26:35.424Z,57.28
2022-11-10T08:29:21.253Z,57.85
2022-11-10T08:32:06.835Z,54.75
2022-11-10T08:34:52.586Z,51.35
2022-11-10T08:37:38.369Z,61.20
2022-11-10T08:40:25.025Z,57.72
2022-11-10T08:43:11.759Z,51.58
2022-11-10T08:45:57.899Z,46.15
2022-11-10T08:48:43.630Z,47.78
2022-11-10T08:51:30.952Z,45.83
2022-11-10T08:54:19.846Z,41.90
2022-11-10T08:57:06.266Z,43.58
2022-11-10T08:59:52.104Z,49.95
2022-11-10T09:02:37.932Z,41.95
2022-11-10T09:05:23.616Z,40.97
2022-11-10T09:08:14.379Z,42.78
2022-11-10T09:11:02.452Z,46.05
2022-11-10T09:13:48.208Z,41.60
2022-11-10T09:16:34.021Z,40.12
2022-11-10T09:19:20.381Z,38.90
2022-11-10T09:22:06.078Z,41.65
2022-11-10T09:24:51.988Z,43.10
2022-11-10T09:30:23.884Z,43.13
2022-11-10T09:36:02.789Z,49.20
2022-11-10T09:38:48.666Z,44.47
2022-11-10T09:41:38.161Z,50.30
2022-11-10T09:44:26.527Z,45.53
2022-11-10T09:47:56.892Z,49.17
2022-11-10T09:50:48.762Z,42.83
2022-11-10T09:53:41.722Z,46.42
2022-11-10T09:56:35.117Z,47.35
2022-11-10T09:59:26.221Z,47.22
2022-11-10T10:02:50.453Z,51.17
2022-11-10T10:06:02.547Z,52.83
2022-11-10T10:08:51.695Z,60.38
2022-11-10T10:11:49.166Z,60.67
2022-11-10T10:14:42.458Z,60.78
2022-11-10T10:17:38.314Z,60.40
2022-11-10T10:20:45.157Z,56.10
2022-11-10T10:24:07.733Z,57.38
2022-11-10T10:29:43.258Z,53.90
2022-11-10T10:32:29.224Z,52.22
2022-11-10T10:35:16.344Z,55.15
2022-11-10T10:38:03.748Z,52.33
2022-11-10T10:40:51.020Z,50.42
2022-11-10T10:43:36.853Z,57.17
2022-11-10T10:46:28.401Z,57.62
2022-11-10T10:49:31.498Z,53.42
2022-11-10T10:52:18.216Z,53.10
2022-11-10T10:55:08.048Z,52.62
2022-11-10T10:58:00.904Z,48.00
2022-11-10T11:00:51.783Z,51.83
2022-11-10T11:03:44.474Z,52.85
2022-11-10T11:06:33.819Z,52.95
2022-11-10T11:09:24.276Z,51.37
2022-11-10T11:12:13.053Z,53.60
2022-11-10T11:15:26.611Z,49.10
2022-11-10T11:18:17.245Z,48.42
2022-11-10T11:21:33.620Z,46.70
2022-11-10T11:24:25.271Z,49.85
2022-11-10T11:27:36.278Z,45.83
2022-11-10T11:30:23.527Z,46.75
2022-11-10T11:33:15.034Z,50.25
2022-11-10T11:36:30.428Z,47.95
2022-11-10T11:39:28.750Z,47.10
2022-11-10T11:42:28.951Z,46.17
2022-11-10T11:45:21.938Z,46.63
2022-11-10T11:48:42.449Z,45.22
2022-11-10T11:51:50.097Z,53.63
2022-11-10T11:55:10.976Z,48.45
2022-11-10T11:58:20.079Z,52.00
2022-11-10T12:01:24.500Z,49.00
2022-11-10T12:04:43.018Z,44.83
2022-11-10T12:07:45.133Z,51.47
2022-11-10T12:10:47.821Z,51.53
2022-11-10T12:13:53.480Z,47.20
2022-11-10T12:16:39.341Z,47.17
2022-11-10T12:19:37.317Z,47.30
2022-11-10T12:22:39.652Z,45.83
2022-11-10T12:25:32.602Z,44.85
2022-11-10T12:28:24.105Z,50.92
2022-11-10T12:31:14.525Z,49.53
2022-11-10T12:34:06.084Z,50.03
2022-11-10T12:36:51.752Z,51.13
2022-11-10T12:39:53.892Z,53.30
2022-11-10T12:42:39.642Z,51.67
2022-11-10T12:45:35.405Z,57.97
2022-11-10T12:48:21.714Z,52.72
2022-11-10T12:51:21.803Z,52.78
2022-11-10T12:54:16.323Z,53.13
2022-11-10T12:57:13.720Z,58.67
2022-11-10T13:00:05.073Z,53.83
2022-11-10T13:02:50.897Z,55.35
2022-11-10T13:05:42.011Z,57.15
2022-11-10T13:08:32.848Z,47.83
2022-11-10T13:11:18.256Z,51.20
2022-11-10T13:14:04.448Z,49.08
2022-11-10T13:16:52.336Z,53.30
2022-11-10T13:19:39.129Z,54.85
2022-11-10T13:22:31.757Z,54.88
2022-11-10T13:25:36.067Z,60.33
2022-11-10T13:28:47.144Z,55.45
2022-11-10T13:31:33.039Z,61.53
2022-11-10T13:34:18.899Z,55.45
2022-11-10T13:37:29.412Z,60.55
2022-11-10T13:40:24.289Z,51.35
2022-11-10T13:43:13.073Z,54.67
2022-11-10T13:46:00.022Z,59.92
2022-11-10T13:49:01.584Z,56.42
2022-11-10T13:51:56.219Z,57.22
2022-11-10T13:55:20.260Z,58.17
2022-11-10T13:58:09.361Z,56.72
2022-11-10T14:01:17.047Z,54.30
2022-11-10T14:04:03.048Z,61.03
2022-11-10T14:06:50.590Z,55.55
2022-11-10T14:09:41.314Z,56.20
2022-11-10T14:12:46.445Z,55.80
2022-11-10T14:15:39.378Z,61.60
2022-11-10T14:18:27.093Z,60.12
2022-11-10T14:21:42.487Z,57.67
2022-11-10T14:24:39.270Z,51.53
2022-11-10T14:27:29.759Z,61.25
2022-11-10T14:30:21.698Z,53.35
2022-11-10T14:33:11.117Z,57.55
2022-11-10T14:36:01.319Z,58.95
2022-11-10T14:38:47.135Z,57.58
2022-11-10T14:41:33.147Z,56.25
2022-11-10T14:44:24.226Z,55.40
2022-11-10T14:47:31.078Z,55.60
2022-11-10T14:50:19.509Z,62.70
2022-11-10T14:53:15.888Z,50.85
2022-11-10T14:56:02.431Z,56.58
2022-11-10T14:58:48.384Z,58.42
2022-11-10T15:01:36.816Z,53.10
2022-11-10T15:04:33.276Z,55.08
2022-11-10T15:13:06.414Z,53.55
2022-11-10T15:15:53.629Z,61.13
2022-11-10T15:18:39.595Z,58.20
2022-11-10T15:21:30.370Z,55.90
2022-11-10T15:24:16.055Z,60.33
2022-11-10T15:27:01.872Z,60.53
2022-11-10T15:29:48.006Z,63.30
2022-11-10T15:32:35.246Z,55.15
2022-11-10T15:35:23.709Z,52.90
2022-11-10T15:38:09.242Z,59.78
2022-11-10T15:41:12.761Z,55.12
2022-11-10T15:44:22.234Z,57.85
2022-11-10T15:47:10.267Z,51.42
2022-11-10T15:49:56.124Z,60.72
2022-11-10T15:52:42.113Z,52.70
2022-11-10T15:55:29.681Z,57.20
2022-11-10T15:58:17.129Z,54.88
2022-11-10T16:01:03.405Z,62.10
2022-11-10T16:03:49.327Z,56.08
2022-11-10T16:06:35.440Z,53.65
2022-11-10T16:09:21.376Z,58.47
2022-11-10T16:12:13.217Z,58.67
2022-11-10T16:14:59.687Z,56.15
2022-11-10T16:17:45.645Z,54.25
2022-11-10T16:20:31.192Z,56.97
2022-11-10T16:23:17.117Z,53.90
2022-11-10T16:26:03.354Z,55.83
2022-11-10T16:31:35.090Z,53.67
2022-11-10T16:34:20.771Z,56.95
2022-11-10T16:37:06.543Z,67.93
2022-11-10T16:39:52.172Z,63.05
2022-11-10T16:42:37.848Z,60.12
2022-11-10T16:45:24.417Z,51.75
2022-11-10T16:48:13.566Z,54.35
2022-11-10T16:50:59.500Z,59.13
2022-11-10T16:53:45.677Z,55.72
2022-11-10T16:56:31.497Z,48.75
2022-11-10T16:59:17.312Z,47.05
2022-11-10T17:02:03.037Z,46.30
2022-11-10T17:04:48.749Z,50.72
2022-11-10T17:07:34.911Z,50.50
2022-11-10T17:10:20.652Z,47.67
2022-11-10T17:13:08.652Z,51.37
2022-11-10T17:15:57.683Z,52.75
2022-11-10T17:18:43.470Z,48.72
2022-11-10T17:21:32.826Z,44.97
2022-11-10T17:24:18.927Z,48.80
2022-11-10T17:27:04.777Z,48.03
2022-11-10T17:29:50.768Z,50.63
2022-11-10T17:33:03.184Z,49.53
2022-11-10T17:35:42.353Z,45.53
2022-11-10T17:38:29.004Z,46.92
2022-11-10T17:41:19.023Z,56.70
2022-11-10T17:44:04.827Z,43.87
2022-11-10T17:46:50.802Z,50.10
2022-11-10T17:49:36.584Z,55.12
2022-11-10T17:52:22.553Z,56.58
2022-11-10T17:55:23.524Z,53.92
2022-11-10T17:58:10.087Z,46.35
2022-11-10T18:00:56.087Z,53.67
2022-11-10T18:03:41.758Z,47.90
2022-11-10T18:06:27.535Z,48.85
2022-11-10T18:09:13.304Z,52.38
2022-11-10T18:11:58.931Z,51.28
2022-11-10T18:14:44.637Z,45.85
2022-11-10T18:17:30.309Z,51.28
2022-11-10T18:20:16.508Z,46.45
2022-11-10T18:25:48.065Z,53.05
2022-11-10T18:28:34.598Z,50.03
2022-11-10T18:31:20.325Z,43.85
2022-11-10T18:34:06.062Z,45.65
2022-11-10T18:36:52.328Z,59.13
2022-11-10T18:42:24.589Z,53.78
2022-11-10T18:45:11.146Z,55.95
2022-11-10T18:48:01.141Z,48.50
2022-11-10T18:50:46.928Z,56.85
2022-11-10T18:53:37.910Z,39.83
2022-11-10T18:56:25.090Z,47.75
2022-11-10T18:59:10.978Z,51.47
2022-11-10T19:01:56.819Z,53.17
2022-11-10T19:04:42.784Z,55.80
2022-11-10T19:07:29.220Z,52.00
2022-11-10T19:10:15.320Z,50.30
2022-11-10T19:13:01.206Z,49.58
2022-11-10T19:15:46.873Z,47.97
2022-11-10T19:18:32.537Z,46.85
2022-11-10T19:21:19.949Z,47.17
2022-11-10T19:24:06.063Z,48.00
2022-11-10T19:29:37.807Z,46.00
2022-11-10T19:32:25.005Z,50.30
2022-11-10T19:35:13.300Z,50.35
2022-11-10T19:37:58.918Z,50.10
2022-11-10T19:40:45.218Z,50.83
2022-11-10T19:43:31.085Z,55.50
2022-11-10T19:46:18.192Z,50.20
2022-11-10T19:49:04.269Z,49.95
2022-11-10T19:51:50.509Z,51.90
2022-11-10T19:54:36.445Z,50.22
2022-11-10T20:00:12.346Z,46.30
2022-11-10T20:02:58.208Z,54.28
2022-11-10T20:05:46.221Z,48.90
2022-11-10T20:08:32.281Z,49.45
2022-11-10T20:11:22.046Z,46.22
2022-11-10T20:14:07.542Z,51.65
2022-11-10T20:16:53.465Z,52.38
2022-11-10T20:19:41.129Z,48.13
2022-11-10T20:22:27.528Z,46.78
2022-11-10T20:25:13.492Z,50.42
2022-11-10T20:28:01.295Z,48.92
2022-11-10T20:30:46.989Z,46.37
2022-11-10T20:33:32.820Z,48.05
2022-11-10T20:36:26.217Z,49.47
2022-11-10T20:39:11.986Z,46.58
2022-11-10T20:41:57.650Z,44.42
2022-11-10T20:44:43.392Z,45.65
2022-11-10T20:47:29.392Z,44.30
2022-11-10T20:50:19.208Z,48.25
2022-11-10T20:53:07.621Z,48.38
2022-11-10T20:55:57.945Z,43.25
2022-11-10T20:58:45.064Z,43.33
2022-11-10T21:01:30.866Z,38.67
2022-11-10T21:04:17.011Z,47.30
2022-11-10T21:07:02.723Z,43.67
2022-11-10T21:09:48.732Z,45.05
2022-11-10T21:12:49.978Z,40.25
2022-11-10T21:15:38.125Z,40.55
2022-11-10T21:18:28.226Z,43.17
2022-11-10T21:21:34.354Z,38.88
2022-11-10T21:24:20.873Z,39.72
2022-11-10T21:27:06.755Z,39.63
2022-11-10T21:29:52.871Z,43.08
2022-11-10T21:32:38.916Z,42.92
2022-11-10T21:35:25.500Z,42.30
2022-11-10T21:38:12.169Z,42.97
2022-11-10T21:43:43.416Z,43.28
2022-11-10T21:46:29.269Z,38.47
2022-11-10T21:49:15.119Z,39.20
2022-11-10T21:52:00.911Z,36.28
2022-11-10T21:54:46.670Z,33.40
2022-11-10T21:57:32.356Z,32.30
2022-11-10T22:00:18.275Z,36.17
2022-11-10T22:03:03.963Z,32.95
2022-11-10T22:05:49.514Z,35.83
2022-11-10T22:08:35.806Z,32.35
2022-11-10T22:11:40.444Z,35.08
2022-11-10T22:14:45.181Z,36.27
2022-11-10T22:17:50.654Z,36.38
2022-11-10T22:20:36.572Z,40.38
2022-11-10T22:23:42.189Z,44.00
2022-11-10T22:26:28.032Z,38.75
2022-11-10T22:29:13.800Z,43.05
2022-11-10T22:32:00.592Z,42.45
2022-11-10T22:34:46.489Z,40.97
2022-11-10T22:37:33.158Z,41.17
2022-11-10T22:40:38.126Z,42.90
2022-11-10T22:43:42.928Z,38.35
2022-11-10T22:46:28.889Z,43.03
2022-11-10T22:49:15.531Z,42.85
2022-11-10T22:52:01.379Z,38.75
2022-11-10T22:54:47.042Z,38.15
2022-11-10T22:57:32.787Z,40.92
2022-11-10T23:00:18.482Z,38.40
2022-11-10T23:03:04.291Z,39.47
2022-11-10T23:05:55.933Z,37.17
2022-11-10T23:08:43.361Z,35.28
2022-11-10T23:11:30.580Z,38.40
2022-11-10T23:14:16.629Z,40.63
2022-11-10T23:17:02.540Z,36.78
2022-11-10T23:19:48.288Z,40.08
2022-11-10T23:22:34.259Z,35.35
2022-11-10T23:25:20.088Z,38.95
2022-11-10T23:28:05.746Z,40.20
2022-11-10T23:30:51.519Z,32.13
2022-11-10T23:33:37.743Z,39.05
2022-11-10T23:39:09.526Z,33.92
2022-11-10T23:41:55.596Z,38.85
2022-11-10T23:44:41.707Z,36.22
2022-11-10T23:47:27.525Z,41.03
2022-11-10T23:50:13.270Z,42.05
2022-11-10T23:52:59.540Z,37.42
2022-11-10T23:55:45.550Z,35.97
2022-11-10T23:58:31.808Z,37.53
